Rubicon, Wisconsin
Current Conditions -  °F | °C
As of 4:55 AM on Friday 31 Oct 2014 (Local Time) from KUNU Reporting Station
Light Snow Light Snow  
Wind Chill: 24°   Ceiling: 700
Heat Index: 32°   Visibility: 0.5mi
Dew Point: 31°   Wind: 9mph
Humidity: 96%   Direction: 310°NW
Pressure: 30.12"   Gusts: NA
Location:  43.34°N, 88.46°W
Report Text: KUNU 310955Z AUTO 31008KT 1/2SM -SN OVC007 00/00 A3012 RMK AO2 T00001005
Loading
Personal Weather Stations






























Interactive Weather Map
Tropical Storm Tracking
New forecast layout! Learn more

10-Day Weather Forecast

Advertisements
Track Severe Weather on mobile